createdAt,value
2022-09-20T00:01:14.652Z,101125.82
2022-09-20T00:03:47.018Z,101125.35
2022-09-20T00:06:17.163Z,101127.19
2022-09-20T00:08:44.431Z,101126.85
2022-09-20T00:11:14.614Z,101130.31
2022-09-20T00:13:42.822Z,101127.84
2022-09-20T00:16:12.129Z,101123.39
2022-09-20T00:18:39.062Z,101125.33
2022-09-20T00:21:15.372Z,101126.77
2022-09-20T00:23:42.515Z,101126.06
2022-09-20T00:26:09.403Z,101125.52
2022-09-20T00:28:36.174Z,101129.95
2022-09-20T00:31:03.264Z,101128.34
2022-09-20T00:33:50.132Z,101128.73
2022-09-20T00:36:17.077Z,101127.83
2022-09-20T00:38:43.794Z,101126.64
2022-09-20T00:41:10.983Z,101130.14
2022-09-20T00:43:43.763Z,101125.40
2022-09-20T00:46:33.463Z,101129.69
2022-09-20T00:49:12.976Z,101131.17
2022-09-20T00:51:43.081Z,101130.23
2022-09-20T00:54:16.953Z,101136.94
2022-09-20T00:56:47.034Z,101137.63
2022-09-20T00:59:19.350Z,101133.55
2022-09-20T01:01:52.290Z,101133.29
2022-09-20T01:04:21.767Z,101131.91
2022-09-20T01:06:54.061Z,101133.92
2022-09-20T01:09:20.998Z,101138.84
2022-09-20T01:11:49.558Z,101136.76
2022-09-20T01:14:18.848Z,101141.39
2022-09-20T01:16:45.957Z,101137.14
2022-09-20T01:19:50.068Z,101133.63
2022-09-20T01:22:27.723Z,101135.47
2022-09-20T01:25:04.294Z,101132.24
2022-09-20T01:27:41.386Z,101136.11
2022-09-20T01:30:19.640Z,101132.91
2022-09-20T01:33:17.006Z,101133.67
2022-09-20T01:35:47.166Z,101134.64
2022-09-20T01:38:33.075Z,101135.88
2022-09-20T01:41:17.474Z,101135.55
2022-09-20T01:44:05.067Z,101136.64
2022-09-20T01:46:36.020Z,101139.15
2022-09-20T01:49:14.968Z,101141.83
2022-09-20T01:52:27.570Z,101143.01
2022-09-20T01:55:25.526Z,101140.09
2022-09-20T01:58:26.242Z,101139.41
2022-09-20T02:01:32.199Z,101141.34
2022-09-20T02:04:34.297Z,101146.05
2022-09-20T02:07:35.981Z,101147.48
2022-09-20T02:10:20.569Z,101148.75
2022-09-20T02:12:56.459Z,101152.19
2022-09-20T02:15:57.161Z,101153.56
2022-09-20T02:19:00.198Z,101151.54
2022-09-20T02:21:52.443Z,101158.05
2022-09-20T02:24:37.802Z,101158.72
2022-09-20T02:27:23.092Z,101157.87
2022-09-20T02:30:04.985Z,101160.90
2022-09-20T02:33:02.699Z,101165.85
2022-09-20T02:35:57.010Z,101160.35
2022-09-20T02:38:54.555Z,101164.87
2022-09-20T02:41:46.036Z,101163.90
2022-09-20T02:44:54.453Z,101166.02
2022-09-20T02:47:39.123Z,101163.91
2022-09-20T02:50:21.073Z,101166.54
2022-09-20T02:53:05.535Z,101167.79
2022-09-20T02:55:39.256Z,101171.05
2022-09-20T02:58:28.878Z,101168.16
2022-09-20T03:01:20.253Z,101165.64
2022-09-20T03:04:05.392Z,101172.09
2022-09-20T03:06:53.925Z,101169.98
2022-09-20T03:09:34.928Z,101171.13
2022-09-20T03:12:20.013Z,101171.34
2022-09-20T03:15:07.804Z,101171.45
2022-09-20T03:17:47.256Z,101171.98
2022-09-20T03:20:19.699Z,101171.67
2022-09-20T03:23:08.956Z,101173.73
2022-09-20T03:25:50.127Z,101172.80
2022-09-20T03:28:34.150Z,101179.45
2022-09-20T03:31:11.174Z,101177.17
2022-09-20T03:33:55.766Z,101177.35
2022-09-20T03:36:46.875Z,101177.45
2022-09-20T03:39:35.419Z,101180.59
2022-09-20T03:42:13.769Z,101182.13
2022-09-20T03:44:55.232Z,101188.86
2022-09-20T03:47:29.560Z,101183.86
2022-09-20T03:50:08.216Z,101187.13
2022-09-20T03:52:53.574Z,101187.40
2022-09-20T03:55:36.905Z,101191.17
2022-09-20T03:58:41.431Z,101192.88
2022-09-20T04:01:33.653Z,101191.66
2022-09-20T04:04:11.877Z,101188.30
2022-09-20T04:06:44.839Z,101193.70
2022-09-20T04:09:43.045Z,101195.33
2022-09-20T04:12:22.553Z,101201.25
2022-09-20T04:15:17.851Z,101200.06
2022-09-20T04:18:08.730Z,101197.45
2022-09-20T04:20:49.104Z,101201.59
2022-09-20T04:23:30.949Z,101204.52
2022-09-20T04:26:00.264Z,101203.31
2022-09-20T04:29:08.595Z,101206.98
2022-09-20T04:31:49.702Z,101204.55
2022-09-20T04:34:59.418Z,101208.65
2022-09-20T04:37:33.377Z,101209.64
2022-09-20T04:40:37.687Z,101214.46
2022-09-20T04:43:25.006Z,101210.81
2022-09-20T04:45:54.560Z,101212.23
2022-09-20T04:48:48.799Z,101219.13
2022-09-20T04:51:53.456Z,101224.77
2022-09-20T04:54:44.750Z,101228.53
2022-09-20T04:57:28.234Z,101230.40
2022-09-20T05:00:04.278Z,101231.23
2022-09-20T05:03:10.567Z,101234.23
2022-09-20T05:06:11.205Z,101234.78
2022-09-20T05:08:58.874Z,101237.48
2022-09-20T05:11:53.451Z,101236.12
2022-09-20T05:14:32.706Z,101237.66
2022-09-20T05:17:06.129Z,101235.77
2022-09-20T05:19:56.092Z,101237.60
2022-09-20T05:22:47.728Z,101243.09
2022-09-20T05:25:48.327Z,101238.29
2022-09-20T05:28:35.766Z,101235.59
2022-09-20T05:31:31.608Z,101242.46
2022-09-20T05:34:09.909Z,101244.09
2022-09-20T05:36:56.203Z,101238.50
2022-09-20T05:39:34.434Z,101251.35
2022-09-20T05:42:20.976Z,101251.61
2022-09-20T05:44:56.422Z,101251.91
2022-09-20T05:47:40.211Z,101259.41
2022-09-20T05:50:18.789Z,101262.30
2022-09-20T05:52:58.461Z,101266.21
2022-09-20T05:56:00.979Z,101271.59
2022-09-20T05:59:13.640Z,101273.61
2022-09-20T06:01:46.423Z,101279.28
2022-09-20T06:04:19.717Z,101281.35
2022-09-20T06:07:00.178Z,101286.20
2022-09-20T06:09:56.693Z,101285.89
2022-09-20T06:12:52.757Z,101289.30
2022-09-20T06:15:33.202Z,101291.95
2022-09-20T06:18:33.551Z,101290.16
2022-09-20T06:21:03.697Z,101295.19
2022-09-20T06:23:31.737Z,101293.95
2022-09-20T06:26:08.473Z,101297.88
2022-09-20T06:28:54.153Z,101292.80
2022-09-20T06:31:23.285Z,101295.83
2022-09-20T06:34:13.126Z,101294.41
2022-09-20T06:37:06.443Z,101294.81
2022-09-20T06:40:33.102Z,101299.36
2022-09-20T06:43:00.754Z,101304.76
2022-09-20T06:45:27.486Z,101307.91
2022-09-20T06:47:54.113Z,101307.01
2022-09-20T06:50:20.870Z,101309.09
2022-09-20T06:52:49.220Z,101309.91
2022-09-20T06:55:29.364Z,101311.52
2022-09-20T06:57:56.757Z,101316.90
2022-09-20T07:00:24.488Z,101321.64
2022-09-20T07:02:51.407Z,101324.17
2022-09-20T07:05:21.890Z,101323.04
2022-09-20T07:07:48.875Z,101324.54
2022-09-20T07:10:16.106Z,101329.44
2022-09-20T07:12:42.741Z,101331.45
2022-09-20T07:15:10.214Z,101330.72
2022-09-20T07:17:37.268Z,101330.36
2022-09-20T07:20:04.062Z,101329.42
2022-09-20T07:22:30.838Z,101333.00
2022-09-20T07:25:02.376Z,101336.67
2022-09-20T07:27:29.657Z,101342.19
2022-09-20T07:29:56.476Z,101345.82
2022-09-20T07:32:23.433Z,101339.02
2022-09-20T07:34:50.182Z,101343.59
2022-09-20T07:37:18.730Z,101345.76
2022-09-20T07:39:46.036Z,101347.48
2022-09-20T07:42:13.278Z,101347.39
2022-09-20T07:44:43.504Z,101355.02
2022-09-20T07:47:11.177Z,101354.89
2022-09-20T07:49:37.777Z,101350.77
2022-09-20T07:52:04.836Z,101359.10
2022-09-20T07:54:31.762Z,101360.58
2022-09-20T07:56:58.524Z,101362.30
2022-09-20T07:59:25.916Z,101367.02
2022-09-20T08:01:52.683Z,101367.09
2022-09-20T08:04:19.793Z,101368.46
2022-09-20T08:06:46.913Z,101368.94
2022-09-20T08:09:14.184Z,101371.52
2022-09-20T08:11:43.473Z,101372.35
2022-09-20T08:14:16.781Z,101378.98
2022-09-20T08:16:48.374Z,101383.47
2022-09-20T08:19:17.648Z,101382.42
2022-09-20T08:21:44.802Z,101377.13
2022-09-20T08:24:11.869Z,101379.56
2022-09-20T08:26:38.969Z,101384.68
2022-09-20T08:29:06.095Z,101384.11
2022-09-20T08:31:36.760Z,101387.95
2022-09-20T08:34:09.534Z,101388.34
2022-09-20T08:36:41.089Z,101390.85
2022-09-20T08:42:09.503Z,101394.63
2022-09-20T08:44:57.767Z,101399.93
2022-09-20T08:47:49.159Z,101403.60
2022-09-20T08:50:19.132Z,101406.33
2022-09-20T08:52:52.259Z,101409.06
2022-09-20T08:55:23.830Z,101408.73
2022-09-20T08:57:56.381Z,101409.05
2022-09-20T09:00:26.277Z,101411.98
2022-09-20T09:02:56.280Z,101410.39
2022-09-20T09:05:33.535Z,101412.38
2022-09-20T09:08:05.035Z,101417.92
2022-09-20T09:10:42.574Z,101415.50
2022-09-20T09:13:18.469Z,101413.48
2022-09-20T09:15:49.151Z,101418.15
2022-09-20T09:18:16.290Z,101417.60
2022-09-20T09:20:46.079Z,101411.25
2022-09-20T09:23:26.020Z,101413.66
2022-09-20T09:25:54.999Z,101414.73
2022-09-20T09:28:27.901Z,101414.06
2022-09-20T09:31:22.348Z,101413.23
2022-09-20T09:33:49.335Z,101417.82
2022-09-20T09:36:21.042Z,101418.75
2022-09-20T09:38:48.358Z,101423.04
2022-09-20T09:41:17.935Z,101419.44
2022-09-20T09:43:59.346Z,101426.09
2022-09-20T09:46:27.482Z,101427.91
2022-09-20T09:49:17.181Z,101432.10
2022-09-20T09:52:02.140Z,101428.73
2022-09-20T09:54:36.297Z,101431.23
2022-09-20T09:57:37.566Z,101434.08
2022-09-20T10:00:13.107Z,101428.96
2022-09-20T10:03:08.927Z,101425.67
2022-09-20T10:05:58.641Z,101423.11
2022-09-20T10:08:46.925Z,101425.75
2022-09-20T10:11:30.085Z,101427.27
2022-09-20T10:14:23.101Z,101422.91
2022-09-20T10:17:08.708Z,101420.05
2022-09-20T10:19:43.078Z,101422.80
2022-09-20T10:23:06.832Z,101422.91
2022-09-20T10:25:40.181Z,101421.16
2022-09-20T10:28:20.423Z,101419.16
2022-09-20T10:31:15.768Z,101420.88
2022-09-20T10:34:03.221Z,101420.36
2022-09-20T10:36:49.656Z,101420.80
2022-09-20T10:39:24.964Z,101416.82
2022-09-20T10:42:48.838Z,101414.89
2022-09-20T10:45:59.152Z,101416.02
2022-09-20T10:48:29.851Z,101419.26
2022-09-20T10:51:15.552Z,101415.25
2022-09-20T10:53:53.488Z,101416.08
2022-09-20T10:56:23.967Z,101409.17
2022-09-20T10:59:11.657Z,101412.94
2022-09-20T11:01:54.844Z,101411.78
2022-09-20T11:04:55.261Z,101415.03
2022-09-20T11:07:53.964Z,101415.90
2022-09-20T11:10:35.748Z,101417.66
2022-09-20T11:13:11.527Z,101421.48
2022-09-20T11:15:45.773Z,101422.77
2022-09-20T11:18:28.281Z,101424.11
2022-09-20T11:21:24.716Z,101421.52
2022-09-20T11:24:03.398Z,101424.20
2022-09-20T11:26:44.884Z,101428.45
2022-09-20T11:29:26.498Z,101426.80
2022-09-20T11:31:58.168Z,101418.75
2022-09-20T11:34:32.934Z,101418.23
2022-09-20T11:37:03.193Z,101427.80
2022-09-20T11:39:44.422Z,101427.32
2022-09-20T11:42:16.395Z,101423.66
2022-09-20T11:44:43.446Z,101420.98
2022-09-20T11:47:42.887Z,101421.80
2022-09-20T11:50:29.180Z,101422.73
2022-09-20T11:52:55.975Z,101423.76
2022-09-20T11:55:50.372Z,101420.69
2022-09-20T11:58:21.211Z,101425.44
2022-09-20T12:00:51.854Z,101430.08
2022-09-20T12:03:40.105Z,101430.95
2022-09-20T12:06:31.007Z,101429.03
2022-09-20T12:09:00.465Z,101426.16
2022-09-20T12:11:38.653Z,101426.08
2022-09-20T12:14:17.956Z,101429.22
2022-09-20T12:16:47.530Z,101425.18
2022-09-20T12:19:36.249Z,101423.58
2022-09-20T12:22:05.549Z,101417.75
2022-09-20T12:24:45.481Z,101416.17
2022-09-20T12:27:27.819Z,101414.38
2022-09-20T12:30:03.297Z,101416.56
2022-09-20T12:32:39.153Z,101421.33
2022-09-20T12:35:36.376Z,101427.10
2022-09-20T12:38:21.390Z,101428.40
2022-09-20T12:41:11.593Z,101426.84
2022-09-20T12:44:03.429Z,101428.77
2022-09-20T12:46:34.559Z,101421.31
2022-09-20T12:49:39.892Z,101417.18
2022-09-20T12:52:59.386Z,101417.34
2022-09-20T12:55:45.911Z,101407.56
2022-09-20T12:58:12.265Z,101405.98
2022-09-20T13:00:46.507Z,101411.02
2022-09-20T13:03:16.762Z,101410.85
2022-09-20T13:05:48.502Z,101408.48
2022-09-20T13:08:28.459Z,101415.71
2022-09-20T13:11:19.821Z,101416.72
2022-09-20T13:14:06.101Z,101420.55
2022-09-20T13:16:41.810Z,101427.89
2022-09-20T13:19:34.204Z,101433.18
2022-09-20T13:22:00.768Z,101429.13
2022-09-20T13:24:37.464Z,101424.30
2022-09-20T13:27:11.929Z,101422.34
2022-09-20T13:29:43.394Z,101419.86
2022-09-20T13:32:23.536Z,101422.98
2022-09-20T13:35:32.693Z,101421.25
2022-09-20T13:38:05.607Z,101429.59
2022-09-20T13:40:38.502Z,101432.45
2022-09-20T13:43:25.188Z,101436.17
2022-09-20T13:46:12.961Z,101439.70
2022-09-20T13:48:40.798Z,101463.17
2022-09-20T13:51:24.169Z,101466.90
2022-09-20T13:53:51.091Z,101470.52
2022-09-20T13:56:25.544Z,101479.27
2022-09-20T13:58:52.875Z,101472.00
2022-09-20T14:01:24.460Z,101476.95
2022-09-20T14:03:51.255Z,101473.80
2022-09-20T14:06:18.311Z,101468.10
2022-09-20T14:08:48.657Z,101465.16
2022-09-20T14:11:31.037Z,101469.14
2022-09-20T14:14:04.262Z,101470.85
2022-09-20T14:16:35.566Z,101461.00
2022-09-20T14:19:03.888Z,101462.90
2022-09-20T14:21:35.477Z,101460.49
2022-09-20T14:24:28.685Z,101463.81
2022-09-20T14:27:18.020Z,101457.19
2022-09-20T14:29:54.670Z,101459.63
2022-09-20T14:32:28.423Z,101461.43
2022-09-20T14:35:04.313Z,101464.63
2022-09-20T14:37:52.392Z,101472.90
2022-09-20T14:40:31.862Z,101472.12
2022-09-20T14:43:01.278Z,101472.58
2022-09-20T14:45:31.020Z,101472.06
2022-09-20T14:48:27.061Z,101475.54
2022-09-20T14:51:25.437Z,101477.68
2022-09-20T14:54:04.246Z,101475.14
2022-09-20T14:56:37.070Z,101474.36
2022-09-20T14:59:21.142Z,101473.61
2022-09-20T15:02:14.534Z,101472.09
2022-09-20T15:04:52.726Z,101475.42
2022-09-20T15:07:19.732Z,101468.14
2022-09-20T15:09:46.478Z,101469.84
2022-09-20T15:12:18.088Z,101470.30
2022-09-20T15:14:45.290Z,101464.36
2022-09-20T15:17:18.495Z,101470.91
2022-09-20T15:19:46.377Z,101467.95
2022-09-20T15:22:14.065Z,101468.33
2022-09-20T15:24:41.345Z,101470.10
2022-09-20T15:27:08.128Z,101475.52
2022-09-20T15:29:35.163Z,101478.42
2022-09-20T15:32:02.795Z,101478.27
2022-09-20T15:34:29.673Z,101476.66
2022-09-20T15:36:56.559Z,101483.48
2022-09-20T15:39:24.676Z,101482.39
2022-09-20T15:41:54.422Z,101480.30
2022-09-20T15:44:21.420Z,101478.71
2022-09-20T15:46:50.686Z,101476.21
2022-09-20T15:49:17.761Z,101481.33
2022-09-20T15:51:45.214Z,101482.54
2022-09-20T15:54:14.054Z,101477.20
2022-09-20T15:56:41.413Z,101481.94
2022-09-20T15:59:10.831Z,101488.27
2022-09-20T16:01:40.044Z,101485.71
2022-09-20T16:04:12.374Z,101491.41
2022-09-20T16:06:41.225Z,101489.89
2022-09-20T16:09:08.866Z,101489.42
2022-09-20T16:11:36.493Z,101487.49
2022-09-20T16:14:03.750Z,101491.77
2022-09-20T16:16:37.396Z,101488.09
2022-09-20T16:19:22.114Z,101487.60
2022-09-20T16:21:57.825Z,101489.95
2022-09-20T16:24:31.157Z,101492.04
2022-09-20T16:26:58.783Z,101497.83
2022-09-20T16:29:25.979Z,101495.77
2022-09-20T16:31:54.415Z,101501.41
2022-09-20T16:34:29.842Z,101499.49
2022-09-20T16:37:23.401Z,101505.07
2022-09-20T16:39:50.234Z,101513.66
2022-09-20T16:42:17.229Z,101510.28
2022-09-20T16:44:44.038Z,101514.25
2022-09-20T16:47:13.906Z,101519.64
2022-09-20T16:49:41.077Z,101521.90
2022-09-20T16:52:09.290Z,101520.13
2022-09-20T16:54:36.059Z,101521.14
2022-09-20T16:57:02.689Z,101525.20
2022-09-20T16:59:29.851Z,101527.08
2022-09-20T17:01:57.187Z,101531.46
2022-09-20T17:04:23.802Z,101533.65
2022-09-20T17:06:51.718Z,101538.31
2022-09-20T17:09:19.110Z,101541.08
2022-09-20T17:11:49.167Z,101541.52
2022-09-20T17:14:17.539Z,101545.77
2022-09-20T17:16:47.741Z,101547.36
2022-09-20T17:19:16.645Z,101552.38
2022-09-20T17:21:49.830Z,101559.91
2022-09-20T17:24:18.629Z,101564.73
2022-09-20T17:26:45.794Z,101564.29
2022-09-20T17:29:15.484Z,101571.63
2022-09-20T17:31:48.769Z,101570.89
2022-09-20T17:34:21.460Z,101569.79
2022-09-20T17:36:48.564Z,101575.48
2022-09-20T17:39:16.095Z,101576.02
2022-09-20T17:41:45.132Z,101582.48
2022-09-20T17:44:12.641Z,101584.13
2022-09-20T17:46:41.275Z,101584.94
2022-09-20T17:49:10.101Z,101590.36
2022-09-20T17:51:42.495Z,101589.94
2022-09-20T17:54:13.702Z,101597.67
2022-09-20T17:56:42.591Z,101597.08
2022-09-20T17:59:10.475Z,101600.95
2022-09-20T18:01:37.833Z,101605.64
2022-09-20T18:04:06.312Z,101611.33
2022-09-20T18:06:44.658Z,101613.94
2022-09-20T18:09:14.754Z,101613.58
2022-09-20T18:11:48.707Z,101614.73
2022-09-20T18:14:20.600Z,101617.85
2022-09-20T18:16:47.963Z,101622.95
2022-09-20T18:19:17.888Z,101623.40
2022-09-20T18:21:44.734Z,101630.16
2022-09-20T18:24:11.976Z,101631.42
2022-09-20T18:26:39.026Z,101633.58
2022-09-20T18:29:07.101Z,101636.80
2022-09-20T18:31:49.766Z,101634.88
2022-09-20T18:34:24.633Z,101638.04
2022-09-20T18:36:56.810Z,101639.46
2022-09-20T18:39:25.211Z,101641.20
2022-09-20T18:41:53.187Z,101644.39
2022-09-20T18:44:21.137Z,101649.98
2022-09-20T18:46:48.362Z,101650.52
2022-09-20T18:49:16.871Z,101652.88
2022-09-20T18:51:44.731Z,101655.58
2022-09-20T18:54:11.732Z,101662.39
2022-09-20T18:56:40.672Z,101663.10
2022-09-20T18:59:22.318Z,101667.19
2022-09-20T19:02:06.783Z,101666.11
2022-09-20T19:05:13.922Z,101669.79
2022-09-20T19:07:52.247Z,101669.63
2022-09-20T19:10:38.301Z,101669.75
2022-09-20T19:13:32.745Z,101671.59
2022-09-20T19:16:22.546Z,101676.80
2022-09-20T19:19:14.593Z,101677.54
2022-09-20T19:22:09.171Z,101680.81
2022-09-20T19:24:41.926Z,101687.05
2022-09-20T19:27:13.752Z,101686.48
2022-09-20T19:29:41.266Z,101691.29
2022-09-20T19:32:15.270Z,101693.73
2022-09-20T19:34:44.393Z,101697.35
2022-09-20T19:37:48.462Z,101703.58
2022-09-20T19:40:27.274Z,101706.20
2022-09-20T19:43:00.586Z,101710.52
2022-09-20T19:45:51.910Z,101715.98
2022-09-20T19:48:38.520Z,101717.04
2022-09-20T19:51:13.907Z,101720.45
2022-09-20T19:53:41.020Z,101718.54
2022-09-20T19:56:28.052Z,101719.48
2022-09-20T19:58:56.318Z,101723.59
2022-09-20T20:01:25.075Z,101725.58
2022-09-20T20:03:55.868Z,101732.79
2022-09-20T20:06:41.019Z,101730.09
2022-09-20T20:09:43.763Z,101734.09
2022-09-20T20:12:25.676Z,101737.33
2022-09-20T20:15:11.354Z,101734.99
2022-09-20T20:17:47.161Z,101735.83
2022-09-20T20:20:22.378Z,101735.49
2022-09-20T20:22:52.332Z,101733.36
2022-09-20T20:25:35.101Z,101732.92
2022-09-20T20:28:02.017Z,101732.45
2022-09-20T20:30:28.657Z,101732.28
2022-09-20T20:32:58.418Z,101732.48
2022-09-20T20:35:28.210Z,101734.89
2022-09-20T20:37:55.049Z,101738.30
2022-09-20T20:40:21.823Z,101740.04
2022-09-20T20:42:48.813Z,101741.14
2022-09-20T20:45:15.939Z,101742.00
2022-09-20T20:47:43.479Z,101746.38
2022-09-20T20:50:11.838Z,101747.70
2022-09-20T20:52:38.728Z,101750.27
2022-09-20T20:55:06.287Z,101754.13
2022-09-20T20:57:34.370Z,101754.77
2022-09-20T21:00:01.212Z,101756.16
2022-09-20T21:02:28.138Z,101756.42
2022-09-20T21:04:54.931Z,101759.46
2022-09-20T21:07:21.742Z,101755.28
2022-09-20T21:09:48.554Z,101753.61
2022-09-20T21:12:15.164Z,101752.77
2022-09-20T21:14:44.486Z,101757.32
2022-09-20T21:17:11.516Z,101761.02
2022-09-20T21:19:38.203Z,101765.11
2022-09-20T21:22:04.849Z,101766.79
2022-09-20T21:24:31.361Z,101771.40
2022-09-20T21:26:58.209Z,101772.77
2022-09-20T21:29:24.966Z,101775.27
2022-09-20T21:31:51.967Z,101772.02
2022-09-20T21:34:18.801Z,101768.33
2022-09-20T21:36:45.358Z,101772.45
2022-09-20T21:39:12.666Z,101770.41
2022-09-20T21:41:40.232Z,101774.69
2022-09-20T21:44:07.914Z,101773.10
2022-09-20T21:46:39.998Z,101778.59
2022-09-20T21:49:08.779Z,101780.27
2022-09-20T21:51:36.171Z,101782.52
2022-09-20T21:54:03.805Z,101788.81
2022-09-20T21:56:32.690Z,101792.94
2022-09-20T21:59:02.470Z,101792.62
2022-09-20T22:01:33.538Z,101791.12
2022-09-20T22:04:00.829Z,101792.11
2022-09-20T22:06:30.958Z,101795.34
2022-09-20T22:09:01.988Z,101793.09
2022-09-20T22:11:31.078Z,101791.44
2022-09-20T22:13:58.905Z,101793.83
2022-09-20T22:16:29.996Z,101792.92
2022-09-20T22:18:57.051Z,101792.98
2022-09-20T22:21:29.595Z,101794.19
2022-09-20T22:24:02.199Z,101793.95
2022-09-20T22:26:32.061Z,101799.57
2022-09-20T22:28:58.889Z,101803.83
2022-09-20T22:31:30.899Z,101802.46
2022-09-20T22:34:02.129Z,101801.88
2022-09-20T22:36:31.728Z,101802.02
2022-09-20T22:38:58.241Z,101807.25
2022-09-20T22:41:24.942Z,101806.09
2022-09-20T22:43:51.964Z,101811.11
2022-09-20T22:46:24.038Z,101807.44
2022-09-20T22:48:50.965Z,101807.90
2022-09-20T22:51:22.658Z,101806.48
2022-09-20T22:53:51.028Z,101806.95
2022-09-20T22:56:36.607Z,101809.88
2022-09-20T22:59:20.870Z,101808.48
2022-09-20T23:01:48.131Z,101808.41
2022-09-20T23:04:18.572Z,101808.77
2022-09-20T23:06:54.919Z,101809.09
2022-09-20T23:09:24.313Z,101810.66
2022-09-20T23:11:51.093Z,101810.31
2022-09-20T23:14:20.540Z,101808.55
2022-09-20T23:16:48.249Z,101813.83
2022-09-20T23:19:16.020Z,101812.11
2022-09-20T23:21:43.798Z,101813.83
2022-09-20T23:24:12.605Z,101814.70
2022-09-20T23:26:40.688Z,101814.01
2022-09-20T23:29:10.909Z,101816.13
2022-09-20T23:31:39.241Z,101817.63
2022-09-20T23:34:07.495Z,101818.96
2022-09-20T23:36:39.675Z,101819.65
2022-09-20T23:39:08.286Z,101815.83
2022-09-20T23:41:36.541Z,101817.89
2022-09-20T23:44:07.367Z,101817.70
2022-09-20T23:46:34.547Z,101819.58
2022-09-20T23:49:01.755Z,101820.16
2022-09-20T23:51:29.378Z,101823.66
2022-09-20T23:53:56.594Z,101823.78
2022-09-20T23:56:23.929Z,101829.50
2022-09-20T23:58:51.234Z,101830.33
